createdAt,value
2024-01-24T00:01:05.454Z,11.56
2024-01-24T00:03:33.943Z,11.59
2024-01-24T00:06:02.236Z,11.67
2024-01-24T00:08:30.675Z,11.65
2024-01-24T00:10:58.902Z,11.62
2024-01-24T00:13:27.093Z,11.62
2024-01-24T00:15:55.443Z,11.62
2024-01-24T00:18:28.644Z,11.59
2024-01-24T00:20:56.921Z,11.58
2024-01-24T00:23:26.237Z,11.58
2024-01-24T00:25:54.533Z,11.55
2024-01-24T00:28:27.873Z,11.52
2024-01-24T00:30:56.204Z,11.52
2024-01-24T00:33:28.985Z,11.49
2024-01-24T00:35:57.469Z,11.48
2024-01-24T00:38:25.743Z,11.46
2024-01-24T00:40:54.020Z,11.43
2024-01-24T00:43:22.708Z,11.42
2024-01-24T00:45:51.531Z,11.38
2024-01-24T00:48:19.493Z,11.38
2024-01-24T00:50:47.762Z,11.33
2024-01-24T00:53:21.001Z,11.31
2024-01-24T00:55:49.865Z,11.30
2024-01-24T00:58:18.131Z,11.28
2024-01-24T01:00:46.488Z,11.27
2024-01-24T01:03:14.866Z,11.27
2024-01-24T01:05:43.632Z,11.26
2024-01-24T01:08:12.357Z,11.26
2024-01-24T01:10:40.985Z,11.25
2024-01-24T01:13:10.572Z,11.24
2024-01-24T01:15:38.849Z,11.23
2024-01-24T01:18:08.408Z,11.21
2024-01-24T01:20:36.634Z,11.20
2024-01-24T01:23:05.212Z,11.20
2024-01-24T01:25:33.407Z,11.17
2024-01-24T01:28:01.709Z,11.15
2024-01-24T01:30:30.067Z,11.15
2024-01-24T01:32:58.426Z,11.14
2024-01-24T01:35:26.744Z,11.14
2024-01-24T01:37:54.985Z,11.12
2024-01-24T01:40:23.310Z,11.12
2024-01-24T01:42:54.026Z,11.13
2024-01-24T01:45:22.757Z,11.12
2024-01-24T01:47:55.210Z,11.11
2024-01-24T01:50:23.469Z,11.14
2024-01-24T01:52:52.059Z,11.11
2024-01-24T01:55:20.303Z,11.14
2024-01-24T01:57:50.063Z,11.13
2024-01-24T02:00:22.454Z,11.12
2024-01-24T02:02:51.676Z,11.11
2024-01-24T02:05:20.038Z,11.11
2024-01-24T02:07:48.544Z,11.14
2024-01-24T02:10:17.230Z,11.15
2024-01-24T02:12:45.526Z,11.17
2024-01-24T02:15:14.550Z,11.16
2024-01-24T02:17:42.606Z,11.17
2024-01-24T02:20:11.526Z,11.16
2024-01-24T02:22:39.794Z,11.17
2024-01-24T02:25:08.927Z,11.18
2024-01-24T02:27:37.226Z,11.15
2024-01-24T02:30:07.069Z,11.15
2024-01-24T02:32:35.410Z,11.15
2024-01-24T02:35:03.649Z,11.12
2024-01-24T02:37:32.547Z,11.13
2024-01-24T02:40:00.832Z,11.12
2024-01-24T02:42:29.708Z,11.14
2024-01-24T02:44:57.957Z,11.12
2024-01-24T02:47:26.296Z,11.12
2024-01-24T02:49:54.659Z,11.08
2024-01-24T02:52:22.931Z,11.07
2024-01-24T02:54:51.246Z,11.03
2024-01-24T02:57:19.688Z,11.03
2024-01-24T02:59:47.963Z,11.00
2024-01-24T03:02:16.210Z,10.99
2024-01-24T03:04:44.484Z,10.96
2024-01-24T03:07:14.582Z,10.95
2024-01-24T03:09:42.878Z,10.94
2024-01-24T03:12:14.124Z,10.92
2024-01-24T03:14:42.376Z,10.91
2024-01-24T03:17:10.885Z,10.89
2024-01-24T03:19:39.274Z,10.87
2024-01-24T03:22:07.939Z,10.85
2024-01-24T03:24:36.155Z,10.85
2024-01-24T03:27:04.437Z,10.84
2024-01-24T03:29:33.153Z,10.82
2024-01-24T03:32:01.358Z,10.83
2024-01-24T03:34:32.493Z,10.78
2024-01-24T03:37:00.739Z,10.79
2024-01-24T03:39:30.023Z,10.76
2024-01-24T03:41:58.207Z,10.73
2024-01-24T03:44:26.433Z,10.72
2024-01-24T03:46:54.906Z,10.73
2024-01-24T03:49:23.699Z,10.71
2024-01-24T03:51:52.194Z,10.65
2024-01-24T03:54:21.135Z,10.61
2024-01-24T03:56:49.368Z,10.57
2024-01-24T03:59:17.872Z,10.55
2024-01-24T04:01:46.119Z,10.49
2024-01-24T04:04:14.554Z,10.48
2024-01-24T04:06:43.044Z,10.41
2024-01-24T04:09:11.673Z,10.36
2024-01-24T04:11:40.707Z,10.30
2024-01-24T04:14:10.878Z,10.22
2024-01-24T04:16:41.667Z,10.17
2024-01-24T04:19:10.107Z,10.07
2024-01-24T04:21:43.773Z,10.01
2024-01-24T04:24:12.625Z,10.01
2024-01-24T04:26:41.629Z,9.95
2024-01-24T04:29:12.799Z,9.85
2024-01-24T04:31:45.590Z,9.81
2024-01-24T04:34:14.344Z,9.80
2024-01-24T04:36:42.798Z,9.79
2024-01-24T04:39:11.670Z,9.80
2024-01-24T04:41:41.225Z,9.78
2024-01-24T04:44:09.715Z,9.74
2024-01-24T04:46:38.024Z,9.70
2024-01-24T04:49:06.824Z,9.63
2024-01-24T04:51:35.802Z,9.62
2024-01-24T04:54:04.083Z,9.66
2024-01-24T04:56:32.324Z,9.77
2024-01-24T04:59:00.484Z,9.78
2024-01-24T05:01:29.613Z,9.73
2024-01-24T05:03:58.129Z,9.65
2024-01-24T05:06:26.443Z,9.64
2024-01-24T05:08:54.917Z,9.57
2024-01-24T05:11:25.626Z,9.54
2024-01-24T05:13:55.179Z,9.44
2024-01-24T05:16:23.420Z,9.47
2024-01-24T05:18:51.876Z,9.45
2024-01-24T05:21:20.207Z,9.40
2024-01-24T05:23:48.892Z,9.37
2024-01-24T05:26:18.199Z,9.42
2024-01-24T05:28:46.582Z,9.43
2024-01-24T05:31:15.080Z,9.45
2024-01-24T05:33:43.441Z,9.53
2024-01-24T05:36:11.933Z,9.57
2024-01-24T05:38:40.536Z,9.56
2024-01-24T05:41:10.516Z,9.57
2024-01-24T05:43:38.965Z,9.57
2024-01-24T05:46:07.520Z,9.49
2024-01-24T05:48:35.851Z,9.42
2024-01-24T05:51:04.288Z,9.35
2024-01-24T05:53:34.668Z,9.33
2024-01-24T05:56:03.026Z,9.33
2024-01-24T05:58:31.309Z,9.29
2024-01-24T06:00:59.675Z,9.33
2024-01-24T06:03:27.959Z,9.39
2024-01-24T06:05:56.795Z,9.41
2024-01-24T06:08:25.119Z,9.45
2024-01-24T06:10:56.306Z,9.39
2024-01-24T06:13:24.724Z,9.36
2024-01-24T06:15:53.351Z,9.38
2024-01-24T06:18:21.805Z,9.40
2024-01-24T06:20:50.224Z,9.37
2024-01-24T06:23:18.852Z,9.35
2024-01-24T06:25:47.143Z,9.32
2024-01-24T06:28:15.957Z,9.25
2024-01-24T06:30:44.169Z,9.22
2024-01-24T06:33:14.464Z,9.14
2024-01-24T06:35:42.724Z,9.13
2024-01-24T06:38:11.130Z,9.12
2024-01-24T06:40:39.376Z,9.07
2024-01-24T06:43:07.795Z,8.98
2024-01-24T06:45:36.380Z,9.06
2024-01-24T06:48:04.735Z,9.09
2024-01-24T06:50:33.002Z,9.15
2024-01-24T06:53:01.324Z,9.19
2024-01-24T06:55:29.521Z,9.18
2024-01-24T06:57:58.078Z,9.17
2024-01-24T07:00:28.346Z,9.14
2024-01-24T07:02:56.744Z,9.11
2024-01-24T07:05:25.041Z,9.14
2024-01-24T07:07:54.487Z,9.03
2024-01-24T07:10:23.318Z,8.98
2024-01-24T07:12:52.714Z,9.04
2024-01-24T07:15:23.024Z,9.02
2024-01-24T07:17:51.350Z,8.96
2024-01-24T07:20:28.084Z,8.85
2024-01-24T07:22:56.308Z,8.79
2024-01-24T07:25:25.700Z,8.84
2024-01-24T07:27:54.803Z,8.83
2024-01-24T07:30:26.322Z,8.85
2024-01-24T07:32:54.614Z,8.85
2024-01-24T07:35:22.907Z,8.84
2024-01-24T07:37:51.074Z,8.80
2024-01-24T07:40:19.387Z,8.76
2024-01-24T07:42:48.009Z,8.68
2024-01-24T07:45:16.756Z,8.75
2024-01-24T07:47:45.876Z,8.73
2024-01-24T07:50:14.555Z,8.78
2024-01-24T07:52:45.183Z,8.77
2024-01-24T07:55:14.257Z,8.84
2024-01-24T07:57:43.575Z,8.85
2024-01-24T08:00:18.993Z,8.85
2024-01-24T08:02:50.835Z,8.91
2024-01-24T08:05:21.156Z,8.92
2024-01-24T08:07:49.794Z,8.99
2024-01-24T08:10:19.039Z,9.06
2024-01-24T08:12:48.036Z,9.16
2024-01-24T08:15:16.425Z,9.23
2024-01-24T08:17:45.271Z,9.21
2024-01-24T08:20:14.064Z,9.14
2024-01-24T08:22:42.342Z,9.12
2024-01-24T08:25:10.599Z,9.10
2024-01-24T08:27:39.060Z,9.10
2024-01-24T08:30:08.303Z,9.16
2024-01-24T08:32:42.031Z,9.27
2024-01-24T08:35:10.779Z,9.31
2024-01-24T08:37:40.236Z,9.40
2024-01-24T08:40:11.021Z,9.48
2024-01-24T08:42:41.808Z,9.56
2024-01-24T08:45:10.675Z,9.44
2024-01-24T08:47:39.514Z,9.39
2024-01-24T08:50:09.368Z,9.47
2024-01-24T08:52:37.923Z,9.59
2024-01-24T08:55:08.961Z,9.68
2024-01-24T08:57:37.931Z,9.72
2024-01-24T09:00:09.147Z,9.78
2024-01-24T09:02:37.771Z,9.90
2024-01-24T09:05:08.162Z,10.09
2024-01-24T09:07:37.386Z,10.26
2024-01-24T09:10:10.119Z,10.20
2024-01-24T09:12:38.934Z,10.08
2024-01-24T09:15:08.237Z,10.00
2024-01-24T09:17:37.165Z,10.10
2024-01-24T09:20:07.725Z,10.19
2024-01-24T09:22:36.411Z,10.09
2024-01-24T09:25:08.209Z,10.19
2024-01-24T09:27:42.404Z,10.28
2024-01-24T09:30:11.471Z,10.35
2024-01-24T09:32:39.902Z,10.66
2024-01-24T09:35:08.727Z,11.03
2024-01-24T09:37:36.800Z,11.26
2024-01-24T09:40:08.212Z,11.48
2024-01-24T09:42:44.803Z,11.58
2024-01-24T09:45:17.993Z,12.07
2024-01-24T09:47:48.802Z,13.21
2024-01-24T09:50:17.654Z,13.85
2024-01-24T09:52:47.857Z,13.86
2024-01-24T09:55:20.762Z,14.33
2024-01-24T09:57:49.969Z,14.57
2024-01-24T10:00:18.919Z,15.43
2024-01-24T10:02:48.478Z,16.01
2024-01-24T10:05:20.771Z,16.53
2024-01-24T10:07:49.385Z,16.94
2024-01-24T10:10:17.914Z,17.60
2024-01-24T10:12:46.929Z,17.60
2024-01-24T10:15:15.626Z,16.65
2024-01-24T10:17:46.959Z,14.97
2024-01-24T10:20:15.191Z,14.58
2024-01-24T10:22:47.684Z,14.81
2024-01-24T10:25:16.185Z,14.34
2024-01-24T10:27:44.690Z,13.54
2024-01-24T10:30:18.750Z,13.96
2024-01-24T10:32:49.018Z,14.50
2024-01-24T10:35:18.091Z,13.82
2024-01-24T10:37:46.486Z,13.46
2024-01-24T10:40:17.816Z,12.97
2024-01-24T10:42:51.845Z,13.56
2024-01-24T10:45:23.695Z,14.16
2024-01-24T10:47:53.823Z,12.95
2024-01-24T10:50:23.173Z,13.94
2024-01-24T10:52:54.933Z,14.31
2024-01-24T10:55:23.952Z,15.44
2024-01-24T10:57:52.381Z,14.27
2024-01-24T11:00:24.076Z,13.93
2024-01-24T11:02:56.046Z,14.09
2024-01-24T11:05:47.800Z,13.99
2024-01-24T11:08:51.319Z,14.29
2024-01-24T11:11:21.820Z,13.60
2024-01-24T11:13:52.167Z,13.22
2024-01-24T11:16:38.640Z,12.62
2024-01-24T11:19:47.779Z,12.22
2024-01-24T11:22:30.293Z,12.07
2024-01-24T11:25:00.780Z,12.03
2024-01-24T11:27:37.762Z,12.15
2024-01-24T11:30:13.613Z,12.06
2024-01-24T11:32:46.511Z,11.91
2024-01-24T11:35:34.164Z,11.83
2024-01-24T11:38:26.255Z,11.90
2024-01-24T11:41:04.366Z,11.66
2024-01-24T11:43:37.687Z,11.39
2024-01-24T11:46:10.129Z,11.34
2024-01-24T11:48:41.054Z,11.21
2024-01-24T11:51:12.467Z,11.07
2024-01-24T11:53:40.957Z,10.99
2024-01-24T11:56:15.756Z,11.05
2024-01-24T11:58:44.557Z,11.14
2024-01-24T12:01:14.064Z,11.27
2024-01-24T12:03:50.643Z,11.33
2024-01-24T12:06:20.513Z,11.34
2024-01-24T12:08:58.170Z,11.26
2024-01-24T12:11:27.926Z,11.28
2024-01-24T12:13:56.793Z,11.35
2024-01-24T12:16:27.704Z,11.38
2024-01-24T12:18:57.362Z,11.36
2024-01-24T12:21:28.460Z,11.35
2024-01-24T12:23:57.169Z,11.43
2024-01-24T12:26:27.211Z,11.38
2024-01-24T12:28:55.473Z,11.38
2024-01-24T12:31:28.689Z,11.27
2024-01-24T12:33:59.186Z,11.17
2024-01-24T12:36:28.134Z,11.08
2024-01-24T12:38:58.658Z,11.00
2024-01-24T12:41:27.573Z,10.97
2024-01-24T12:43:57.916Z,10.91
2024-01-24T12:46:26.836Z,10.88
2024-01-24T12:48:55.911Z,10.89
2024-01-24T12:51:24.308Z,10.90
2024-01-24T12:53:52.667Z,10.91
2024-01-24T12:56:21.303Z,10.84
2024-01-24T12:58:50.146Z,10.73
2024-01-24T13:01:18.436Z,10.71
2024-01-24T13:03:47.218Z,10.67
2024-01-24T13:06:17.714Z,10.63
2024-01-24T13:08:46.113Z,10.60
2024-01-24T13:11:14.548Z,10.53
2024-01-24T13:13:42.997Z,10.48
2024-01-24T13:16:11.427Z,10.44
2024-01-24T13:18:39.802Z,10.40
2024-01-24T13:21:08.210Z,10.39
2024-01-24T13:23:36.460Z,10.37
2024-01-24T13:26:04.754Z,10.36
2024-01-24T13:28:33.181Z,10.39
2024-01-24T13:31:02.364Z,10.40
2024-01-24T13:33:30.775Z,10.46
2024-01-24T13:35:59.092Z,10.51
2024-01-24T13:38:30.320Z,10.50
2024-01-24T13:40:58.927Z,10.47
2024-01-24T13:43:27.295Z,10.50
2024-01-24T13:45:56.158Z,10.51
2024-01-24T13:48:25.716Z,10.50
2024-01-24T13:50:55.670Z,10.49
2024-01-24T13:53:24.646Z,10.47
2024-01-24T13:55:53.039Z,10.46
2024-01-24T13:58:21.687Z,10.45
2024-01-24T14:00:50.513Z,10.44
2024-01-24T14:03:19.075Z,10.39
2024-01-24T14:05:47.408Z,10.35
2024-01-24T14:08:17.382Z,10.29
2024-01-24T14:10:45.912Z,10.26
2024-01-24T14:13:16.320Z,10.27
2024-01-24T14:15:45.227Z,10.19
2024-01-24T14:18:13.497Z,10.14
2024-01-24T14:20:41.947Z,10.10
2024-01-24T14:23:11.582Z,10.07
2024-01-24T14:25:43.859Z,10.01
2024-01-24T14:28:12.271Z,9.95
2024-01-24T14:30:41.095Z,9.87
2024-01-24T14:33:17.601Z,9.85
2024-01-24T14:35:48.946Z,9.84
2024-01-24T14:38:17.368Z,9.81
2024-01-24T14:40:45.599Z,9.79
2024-01-24T14:43:14.737Z,9.76
2024-01-24T14:45:45.139Z,9.76
2024-01-24T14:48:13.592Z,9.75
2024-01-24T14:50:43.402Z,9.73
2024-01-24T14:53:12.279Z,9.71
2024-01-24T14:55:41.043Z,9.69
2024-01-24T14:58:09.338Z,9.68
2024-01-24T15:00:37.795Z,9.66
2024-01-24T15:03:17.308Z,9.65
2024-01-24T15:05:45.541Z,9.62
2024-01-24T15:08:13.814Z,9.57
2024-01-24T15:10:45.245Z,9.54
2024-01-24T15:13:13.558Z,9.51
2024-01-24T15:15:41.884Z,9.48
2024-01-24T15:18:10.406Z,9.47
2024-01-24T15:20:45.351Z,9.45
2024-01-24T15:23:18.313Z,9.42
2024-01-24T15:25:46.869Z,9.37
2024-01-24T15:28:15.299Z,9.35
2024-01-24T15:30:43.875Z,9.33
2024-01-24T15:33:12.292Z,9.31
2024-01-24T15:35:42.260Z,9.27
2024-01-24T15:38:10.574Z,9.24
2024-01-24T15:40:38.815Z,9.22
2024-01-24T15:43:10.567Z,9.21
2024-01-24T15:45:39.748Z,9.17
2024-01-24T15:48:08.315Z,9.15
2024-01-24T15:50:38.047Z,9.12
2024-01-24T15:53:07.559Z,9.09
2024-01-24T15:55:35.808Z,9.10
2024-01-24T15:58:04.281Z,9.10
2024-01-24T16:00:33.003Z,9.07
2024-01-24T16:03:02.253Z,9.01
2024-01-24T16:05:46.923Z,9.01
2024-01-24T16:08:16.835Z,8.96
2024-01-24T16:10:46.097Z,8.93
2024-01-24T16:13:14.386Z,8.90
2024-01-24T16:15:42.807Z,8.90
2024-01-24T16:18:11.222Z,8.89
2024-01-24T16:20:40.754Z,8.85
2024-01-24T16:23:09.063Z,8.88
2024-01-24T16:25:37.305Z,8.89
2024-01-24T16:28:05.859Z,8.86
2024-01-24T16:30:36.507Z,8.82
2024-01-24T16:33:04.964Z,8.79
2024-01-24T16:35:34.076Z,8.80
2024-01-24T16:38:02.417Z,8.79
2024-01-24T16:40:31.374Z,8.80
2024-01-24T16:43:03.164Z,8.80
2024-01-24T16:45:31.437Z,8.81
2024-01-24T16:47:59.701Z,8.79
2024-01-24T16:50:28.236Z,8.78
2024-01-24T16:52:56.476Z,8.78
2024-01-24T16:55:24.790Z,8.75
2024-01-24T16:57:53.042Z,8.77
2024-01-24T17:00:21.559Z,8.80
2024-01-24T17:02:54.497Z,8.78
2024-01-24T17:05:27.001Z,8.76
2024-01-24T17:07:55.320Z,8.79
2024-01-24T17:10:23.870Z,8.81
2024-01-24T17:12:52.222Z,8.78
2024-01-24T17:15:20.567Z,8.77
2024-01-24T17:17:48.896Z,8.79
2024-01-24T17:20:17.198Z,8.78
2024-01-24T17:22:45.416Z,8.80
2024-01-24T17:25:19.146Z,8.82
2024-01-24T17:27:47.428Z,8.85
2024-01-24T17:30:15.984Z,8.85
2024-01-24T17:32:44.390Z,8.83
2024-01-24T17:35:12.626Z,8.81
2024-01-24T17:37:40.996Z,8.81
2024-01-24T17:40:10.571Z,8.81
2024-01-24T17:42:40.662Z,8.82
2024-01-24T17:45:09.790Z,8.81
2024-01-24T17:47:39.219Z,8.78
2024-01-24T17:50:08.367Z,8.73
2024-01-24T17:52:39.289Z,8.71
2024-01-24T17:55:08.402Z,8.69
2024-01-24T17:57:36.383Z,8.76
2024-01-24T18:00:06.961Z,8.80
2024-01-24T18:02:35.611Z,8.79
2024-01-24T18:05:04.964Z,8.75
2024-01-24T18:07:34.099Z,8.74
2024-01-24T18:10:03.340Z,8.73
2024-01-24T18:12:32.592Z,8.74
2024-01-24T18:15:01.060Z,8.71
2024-01-24T18:17:29.453Z,8.66
2024-01-24T18:19:57.808Z,8.61
2024-01-24T18:22:26.247Z,8.57
2024-01-24T18:24:54.677Z,8.57
2024-01-24T18:27:23.075Z,8.52
2024-01-24T18:29:54.021Z,8.48
2024-01-24T18:32:22.997Z,8.43
2024-01-24T18:34:51.657Z,8.39
2024-01-24T18:37:19.914Z,8.34
2024-01-24T18:39:49.176Z,8.31
2024-01-24T18:42:17.909Z,8.27
2024-01-24T18:44:47.438Z,8.26
2024-01-24T18:47:16.027Z,8.25
2024-01-24T18:49:44.860Z,8.20
2024-01-24T18:52:14.438Z,8.17
2024-01-24T18:54:44.165Z,8.14
2024-01-24T18:57:13.066Z,8.11
2024-01-24T18:59:42.332Z,8.10
2024-01-24T19:02:12.817Z,8.09
2024-01-24T19:04:42.419Z,8.11
2024-01-24T19:07:10.949Z,8.12
2024-01-24T19:09:40.222Z,8.11
2024-01-24T19:12:09.562Z,8.10
2024-01-24T19:14:39.170Z,8.05
2024-01-24T19:17:10.369Z,8.00
2024-01-24T19:19:41.569Z,8.01
2024-01-24T19:22:09.881Z,8.02
2024-01-24T19:24:38.106Z,7.96
2024-01-24T19:27:06.970Z,7.94
2024-01-24T19:29:35.403Z,7.91
2024-01-24T19:32:03.963Z,7.93
2024-01-24T19:34:32.560Z,7.90
2024-01-24T19:37:02.094Z,7.89
2024-01-24T19:39:30.421Z,7.91
2024-01-24T19:41:58.764Z,7.90
2024-01-24T19:44:27.218Z,7.89
2024-01-24T19:46:57.236Z,7.91
2024-01-24T19:49:25.824Z,7.87
2024-01-24T19:51:54.444Z,7.89
2024-01-24T19:54:22.981Z,7.87
2024-01-24T19:56:51.287Z,7.88
2024-01-24T19:59:19.534Z,7.84
2024-01-24T20:01:47.795Z,7.86
2024-01-24T20:04:17.241Z,7.82
2024-01-24T20:06:45.755Z,7.82
2024-01-24T20:09:16.904Z,7.80
2024-01-24T20:11:45.079Z,7.80
2024-01-24T20:14:13.641Z,7.82
2024-01-24T20:16:42.099Z,7.85
2024-01-24T20:19:10.581Z,7.84
2024-01-24T20:21:42.333Z,7.84
2024-01-24T20:24:12.834Z,7.86
2024-01-24T20:26:41.283Z,7.87
2024-01-24T20:29:09.776Z,7.87
2024-01-24T20:31:38.022Z,7.90
2024-01-24T20:34:07.923Z,7.87
2024-01-24T20:36:37.018Z,7.87
2024-01-24T20:39:05.881Z,7.89
2024-01-24T20:41:34.090Z,7.92
2024-01-24T20:44:02.296Z,7.95
2024-01-24T20:46:30.553Z,7.95
2024-01-24T20:48:58.870Z,7.92
2024-01-24T20:51:27.154Z,7.92
2024-01-24T20:53:55.436Z,7.92
2024-01-24T20:56:23.756Z,7.93
2024-01-24T20:58:52.739Z,7.94
2024-01-24T21:01:21.720Z,7.93
2024-01-24T21:03:51.138Z,7.92
2024-01-24T21:06:23.550Z,7.98
2024-01-24T21:08:51.871Z,8.02
2024-01-24T21:11:20.613Z,8.00
2024-01-24T21:13:49.069Z,7.95
2024-01-24T21:16:18.558Z,7.95
2024-01-24T21:18:46.917Z,7.98
2024-01-24T21:21:15.265Z,8.03
2024-01-24T21:23:43.527Z,8.07
2024-01-24T21:26:12.313Z,8.15
2024-01-24T21:28:41.092Z,8.18
2024-01-24T21:31:09.916Z,8.16
2024-01-24T21:33:38.361Z,8.17
2024-01-24T21:36:08.994Z,8.15
2024-01-24T21:38:37.384Z,8.14
2024-01-24T21:41:06.685Z,8.15
2024-01-24T21:43:34.960Z,8.17
2024-01-24T21:46:03.247Z,8.19
2024-01-24T21:48:31.519Z,8.19
2024-01-24T21:50:59.730Z,8.24
2024-01-24T21:53:27.973Z,8.24
2024-01-24T21:55:56.986Z,8.28
2024-01-24T21:58:25.698Z,8.30
2024-01-24T22:00:54.322Z,8.28
2024-01-24T22:03:22.978Z,8.25
2024-01-24T22:05:51.204Z,8.26
2024-01-24T22:08:21.093Z,8.25
2024-01-24T22:10:49.694Z,8.24
2024-01-24T22:13:17.898Z,8.25
2024-01-24T22:15:51.590Z,8.20
2024-01-24T22:18:22.878Z,8.19
2024-01-24T22:20:55.826Z,8.19
2024-01-24T22:23:24.229Z,8.17
2024-01-24T22:25:52.449Z,8.17
2024-01-24T22:28:20.760Z,8.16
2024-01-24T22:30:49.840Z,8.15
2024-01-24T22:33:18.894Z,8.12
2024-01-24T22:35:47.424Z,8.12
2024-01-24T22:38:15.865Z,8.10
2024-01-24T22:40:44.053Z,8.09
2024-01-24T22:43:13.873Z,8.05
2024-01-24T22:45:43.364Z,8.01
2024-01-24T22:48:12.732Z,8.02
2024-01-24T22:50:41.685Z,7.99
2024-01-24T22:53:10.069Z,7.93
2024-01-24T22:55:38.267Z,7.88
2024-01-24T22:58:06.546Z,7.85
2024-01-24T23:00:34.937Z,7.82
2024-01-24T23:03:03.537Z,7.77
2024-01-24T23:05:31.987Z,7.75
2024-01-24T23:08:01.108Z,7.77
2024-01-24T23:10:29.571Z,7.74
2024-01-24T23:12:57.850Z,7.67
2024-01-24T23:15:26.464Z,7.63
2024-01-24T23:17:55.186Z,7.58
2024-01-24T23:20:23.503Z,7.52
2024-01-24T23:22:51.748Z,7.46
2024-01-24T23:25:20.295Z,7.35
2024-01-24T23:27:48.634Z,7.28
2024-01-24T23:30:17.133Z,7.17
2024-01-24T23:32:46.786Z,7.08
2024-01-24T23:35:15.569Z,6.98
2024-01-24T23:37:44.020Z,6.88
2024-01-24T23:40:12.963Z,6.81
2024-01-24T23:42:41.368Z,6.71
2024-01-24T23:45:09.917Z,6.67
2024-01-24T23:47:38.214Z,6.61
2024-01-24T23:50:07.154Z,6.56
2024-01-24T23:52:35.905Z,6.48
2024-01-24T23:55:05.722Z,6.41
2024-01-24T23:57:34.077Z,6.37
